sensor_id;sensor_type;location;lat;lon;timestamp;P1;durP1;ratioP1;P2;durP2;ratioP2
10418;SDS011;5256;48.728;9.140;2023-10-13T00:01:56;0.40;;;0.40;;
10418;SDS011;5256;48.728;9.140;2023-10-13T00:04:26;0.30;;;0.30;;
10418;SDS011;5256;48.728;9.140;2023-10-13T00:06:52;0.30;;;0.30;;
10418;SDS011;5256;48.728;9.140;2023-10-13T00:09:21;0.20;;;0.20;;
10418;SDS011;5256;48.728;9.140;2023-10-13T00:11:50;0.30;;;0.30;;
10418;SDS011;5256;48.728;9.140;2023-10-13T00:14:20;0.33;;;0.33;;
10418;SDS011;5256;48.728;9.140;2023-10-13T00:16:57;0.20;;;0.20;;
10418;SDS011;5256;48.728;9.140;2023-10-13T00:19:41;0.20;;;0.20;;
10418;SDS011;5256;48.728;9.140;2023-10-13T00:22:17;0.20;;;0.20;;
10418;SDS011;5256;48.728;9.140;2023-10-13T00:24:44;0.30;;;0.30;;
10418;SDS011;5256;48.728;9.140;2023-10-13T00:27:17;0.30;;;0.30;;
10418;SDS011;5256;48.728;9.140;2023-10-13T00:29:59;0.30;;;0.30;;
10418;SDS011;5256;48.728;9.140;2023-10-13T00:32:51;0.30;;;0.30;;
10418;SDS011;5256;48.728;9.140;2023-10-13T00:35:20;0.37;;;0.37;;
10418;SDS011;5256;48.728;9.140;2023-10-13T00:38:01;0.33;;;0.33;;
10418;SDS011;5256;48.728;9.140;2023-10-13T00:40:41;0.30;;;0.30;;
10418;SDS011;5256;48.728;9.140;2023-10-13T00:43:09;0.30;;;0.30;;
10418;SDS011;5256;48.728;9.140;2023-10-13T00:45:44;0.30;;;0.30;;
10418;SDS011;5256;48.728;9.140;2023-10-13T00:48:25;0.30;;;0.30;;
10418;SDS011;5256;48.728;9.140;2023-10-13T00:51:00;0.27;;;0.27;;
10418;SDS011;5256;48.728;9.140;2023-10-13T00:53:28;0.30;;;0.30;;
10418;SDS011;5256;48.728;9.140;2023-10-13T00:56:05;0.30;;;0.30;;
10418;SDS011;5256;48.728;9.140;2023-10-13T00:58:33;0.30;;;0.30;;
10418;SDS011;5256;48.728;9.140;2023-10-13T01:00:59;0.30;;;0.30;;
10418;SDS011;5256;48.728;9.140;2023-10-13T01:03:43;0.20;;;0.20;;
10418;SDS011;5256;48.728;9.140;2023-10-13T01:06:16;0.30;;;0.30;;
10418;SDS011;5256;48.728;9.140;2023-10-13T01:08:44;0.40;;;0.40;;
10418;SDS011;5256;48.728;9.140;2023-10-13T01:11:15;0.40;;;0.40;;
10418;SDS011;5256;48.728;9.140;2023-10-13T01:13:44;0.30;;;0.30;;
10418;SDS011;5256;48.728;9.140;2023-10-13T01:16:16;0.30;;;0.30;;
10418;SDS011;5256;48.728;9.140;2023-10-13T01:18:48;0.30;;;0.30;;
10418;SDS011;5256;48.728;9.140;2023-10-13T01:21:17;0.40;;;0.40;;
10418;SDS011;5256;48.728;9.140;2023-10-13T01:23:45;0.40;;;0.40;;
10418;SDS011;5256;48.728;9.140;2023-10-13T01:26:13;0.30;;;0.30;;
10418;SDS011;5256;48.728;9.140;2023-10-13T01:28:46;0.30;;;0.30;;
10418;SDS011;5256;48.728;9.140;2023-10-13T01:31:13;0.30;;;0.30;;
10418;SDS011;5256;48.728;9.140;2023-10-13T01:33:49;0.30;;;0.30;;
10418;SDS011;5256;48.728;9.140;2023-10-13T01:36:18;0.40;;;0.40;;
10418;SDS011;5256;48.728;9.140;2023-10-13T01:38:44;0.40;;;0.40;;
10418;SDS011;5256;48.728;9.140;2023-10-13T01:41:11;0.37;;;0.37;;
10418;SDS011;5256;48.728;9.140;2023-10-13T01:43:38;0.30;;;0.30;;
10418;SDS011;5256;48.728;9.140;2023-10-13T01:46:04;0.30;;;0.30;;
10418;SDS011;5256;48.728;9.140;2023-10-13T01:48:30;0.30;;;0.30;;
10418;SDS011;5256;48.728;9.140;2023-10-13T01:50:57;0.40;;;0.40;;
10418;SDS011;5256;48.728;9.140;2023-10-13T01:53:26;0.40;;;0.40;;
10418;SDS011;5256;48.728;9.140;2023-10-13T01:55:54;0.30;;;0.30;;
10418;SDS011;5256;48.728;9.140;2023-10-13T01:58:22;0.30;;;0.30;;
10418;SDS011;5256;48.728;9.140;2023-10-13T02:00:48;0.27;;;0.27;;
10418;SDS011;5256;48.728;9.140;2023-10-13T02:03:14;0.30;;;0.30;;
10418;SDS011;5256;48.728;9.140;2023-10-13T02:05:42;0.40;;;0.40;;
10418;SDS011;5256;48.728;9.140;2023-10-13T02:08:22;0.30;;;0.30;;
10418;SDS011;5256;48.728;9.140;2023-10-13T02:10:49;0.30;;;0.30;;
10418;SDS011;5256;48.728;9.140;2023-10-13T02:13:16;0.30;;;0.30;;
10418;SDS011;5256;48.728;9.140;2023-10-13T02:15:43;0.30;;;0.30;;
10418;SDS011;5256;48.728;9.140;2023-10-13T02:18:10;0.30;;;0.30;;
10418;SDS011;5256;48.728;9.140;2023-10-13T02:20:45;0.37;;;0.37;;
10418;SDS011;5256;48.728;9.140;2023-10-13T02:23:11;0.33;;;0.33;;
10418;SDS011;5256;48.728;9.140;2023-10-13T02:25:37;0.33;;;0.33;;
10418;SDS011;5256;48.728;9.140;2023-10-13T02:28:10;0.30;;;0.30;;
10418;SDS011;5256;48.728;9.140;2023-10-13T02:30:42;0.40;;;0.40;;
10418;SDS011;5256;48.728;9.140;2023-10-13T02:33:16;0.40;;;0.40;;
10418;SDS011;5256;48.728;9.140;2023-10-13T02:35:54;0.30;;;0.30;;
10418;SDS011;5256;48.728;9.140;2023-10-13T02:38:21;0.27;;;0.27;;
10418;SDS011;5256;48.728;9.140;2023-10-13T02:41:11;0.40;;;0.40;;
10418;SDS011;5256;48.728;9.140;2023-10-13T02:43:37;0.30;;;0.30;;
10418;SDS011;5256;48.728;9.140;2023-10-13T02:46:03;0.40;;;0.40;;
10418;SDS011;5256;48.728;9.140;2023-10-13T02:48:29;0.37;;;0.37;;
10418;SDS011;5256;48.728;9.140;2023-10-13T02:51:04;0.40;;;0.40;;
10418;SDS011;5256;48.728;9.140;2023-10-13T02:53:40;0.30;;;0.30;;
10418;SDS011;5256;48.728;9.140;2023-10-13T02:56:14;0.40;;;0.40;;
10418;SDS011;5256;48.728;9.140;2023-10-13T02:58:46;0.40;;;0.40;;
10418;SDS011;5256;48.728;9.140;2023-10-13T03:01:18;0.30;;;0.30;;
10418;SDS011;5256;48.728;9.140;2023-10-13T03:03:48;0.30;;;0.30;;
10418;SDS011;5256;48.728;9.140;2023-10-13T03:06:16;0.33;;;0.33;;
10418;SDS011;5256;48.728;9.140;2023-10-13T03:08:46;0.40;;;0.40;;
10418;SDS011;5256;48.728;9.140;2023-10-13T03:11:12;0.30;;;0.30;;
10418;SDS011;5256;48.728;9.140;2023-10-13T03:13:39;0.30;;;0.30;;
10418;SDS011;5256;48.728;9.140;2023-10-13T03:16:13;0.30;;;0.30;;
10418;SDS011;5256;48.728;9.140;2023-10-13T03:18:44;0.40;;;0.40;;
10418;SDS011;5256;48.728;9.140;2023-10-13T03:21:21;0.30;;;0.30;;
10418;SDS011;5256;48.728;9.140;2023-10-13T03:23:57;0.30;;;0.30;;
10418;SDS011;5256;48.728;9.140;2023-10-13T03:26:29;0.40;;;0.40;;
10418;SDS011;5256;48.728;9.140;2023-10-13T03:29:00;0.40;;;0.40;;
10418;SDS011;5256;48.728;9.140;2023-10-13T03:31:28;0.30;;;0.30;;
10418;SDS011;5256;48.728;9.140;2023-10-13T03:33:54;0.30;;;0.30;;
10418;SDS011;5256;48.728;9.140;2023-10-13T03:36:25;0.40;;;0.40;;
10418;SDS011;5256;48.728;9.140;2023-10-13T03:39:09;0.37;;;0.37;;
10418;SDS011;5256;48.728;9.140;2023-10-13T03:41:36;0.30;;;0.30;;
10418;SDS011;5256;48.728;9.140;2023-10-13T03:44:04;0.37;;;0.37;;
10418;SDS011;5256;48.728;9.140;2023-10-13T03:46:34;0.30;;;0.30;;
10418;SDS011;5256;48.728;9.140;2023-10-13T03:49:03;0.40;;;0.40;;
10418;SDS011;5256;48.728;9.140;2023-10-13T03:51:31;0.40;;;0.40;;
10418;SDS011;5256;48.728;9.140;2023-10-13T03:53:57;0.30;;;0.30;;
10418;SDS011;5256;48.728;9.140;2023-10-13T03:56:23;0.30;;;0.30;;
10418;SDS011;5256;48.728;9.140;2023-10-13T03:58:56;0.40;;;0.40;;
10418;SDS011;5256;48.728;9.140;2023-10-13T04:01:30;0.40;;;0.40;;
10418;SDS011;5256;48.728;9.140;2023-10-13T04:03:58;0.30;;;0.30;;
10418;SDS011;5256;48.728;9.140;2023-10-13T04:06:34;0.30;;;0.30;;
10418;SDS011;5256;48.728;9.140;2023-10-13T04:09:19;0.43;;;0.43;;
10418;SDS011;5256;48.728;9.140;2023-10-13T04:11:58;0.40;;;0.40;;
10418;SDS011;5256;48.728;9.140;2023-10-13T04:14:28;0.30;;;0.30;;
10418;SDS011;5256;48.728;9.140;2023-10-13T04:17:12;0.40;;;0.40;;
10418;SDS011;5256;48.728;9.140;2023-10-13T04:19:41;0.50;;;0.50;;
10418;SDS011;5256;48.728;9.140;2023-10-13T04:22:25;0.30;;;0.30;;
10418;SDS011;5256;48.728;9.140;2023-10-13T04:25:15;0.40;;;0.40;;
10418;SDS011;5256;48.728;9.140;2023-10-13T04:28:04;0.37;;;0.37;;
10418;SDS011;5256;48.728;9.140;2023-10-13T04:33:21;0.40;;;0.40;;
10418;SDS011;5256;48.728;9.140;2023-10-13T04:36:01;0.40;;;0.40;;
10418;SDS011;5256;48.728;9.140;2023-10-13T04:38:59;0.30;;;0.30;;
10418;SDS011;5256;48.728;9.140;2023-10-13T04:41:43;0.40;;;0.40;;
10418;SDS011;5256;48.728;9.140;2023-10-13T04:44:15;0.30;;;0.30;;
10418;SDS011;5256;48.728;9.140;2023-10-13T04:47:00;0.33;;;0.33;;
10418;SDS011;5256;48.728;9.140;2023-10-13T04:49:26;0.40;;;0.40;;
10418;SDS011;5256;48.728;9.140;2023-10-13T04:52:08;0.40;;;0.40;;
10418;SDS011;5256;48.728;9.140;2023-10-13T04:54:35;0.30;;;0.30;;
10418;SDS011;5256;48.728;9.140;2023-10-13T04:57:19;0.40;;;0.40;;
10418;SDS011;5256;48.728;9.140;2023-10-13T04:59:47;0.40;;;0.40;;
10418;SDS011;5256;48.728;9.140;2023-10-13T05:02:31;0.40;;;0.40;;
10418;SDS011;5256;48.728;9.140;2023-10-13T05:05:00;0.37;;;0.37;;
10418;SDS011;5256;48.728;9.140;2023-10-13T05:07:50;0.40;;;0.40;;
10418;SDS011;5256;48.728;9.140;2023-10-13T05:10:35;0.40;;;0.40;;
10418;SDS011;5256;48.728;9.140;2023-10-13T05:13:20;0.60;;;0.60;;
10418;SDS011;5256;48.728;9.140;2023-10-13T05:16:04;0.30;;;0.30;;
10418;SDS011;5256;48.728;9.140;2023-10-13T05:18:48;0.50;;;0.50;;
10418;SDS011;5256;48.728;9.140;2023-10-13T05:21:32;0.40;;;0.40;;
10418;SDS011;5256;48.728;9.140;2023-10-13T05:24:17;0.40;;;0.40;;
10418;SDS011;5256;48.728;9.140;2023-10-13T05:27:01;0.30;;;0.30;;
10418;SDS011;5256;48.728;9.140;2023-10-13T05:29:46;0.47;;;0.47;;
10418;SDS011;5256;48.728;9.140;2023-10-13T05:32:31;0.30;;;0.30;;
10418;SDS011;5256;48.728;9.140;2023-10-13T05:35:16;0.30;;;0.30;;
10418;SDS011;5256;48.728;9.140;2023-10-13T05:38:01;0.30;;;0.30;;
10418;SDS011;5256;48.728;9.140;2023-10-13T05:40:51;0.40;;;0.40;;
10418;SDS011;5256;48.728;9.140;2023-10-13T05:43:36;0.30;;;0.30;;
10418;SDS011;5256;48.728;9.140;2023-10-13T05:46:34;0.20;;;0.20;;
10418;SDS011;5256;48.728;9.140;2023-10-13T05:49:02;0.30;;;0.30;;
10418;SDS011;5256;48.728;9.140;2023-10-13T05:51:41;0.30;;;0.30;;
10418;SDS011;5256;48.728;9.140;2023-10-13T05:54:33;0.33;;;0.33;;
10418;SDS011;5256;48.728;9.140;2023-10-13T05:57:17;0.40;;;0.40;;
10418;SDS011;5256;48.728;9.140;2023-10-13T06:00:09;0.40;;;0.40;;
10418;SDS011;5256;48.728;9.140;2023-10-13T06:02:53;0.30;;;0.30;;
10418;SDS011;5256;48.728;9.140;2023-10-13T06:05:37;0.40;;;0.40;;
10418;SDS011;5256;48.728;9.140;2023-10-13T06:08:21;0.30;;;0.30;;
10418;SDS011;5256;48.728;9.140;2023-10-13T06:11:05;0.40;;;0.40;;
10418;SDS011;5256;48.728;9.140;2023-10-13T06:13:49;0.30;;;0.30;;
10418;SDS011;5256;48.728;9.140;2023-10-13T06:16:33;0.27;;;0.27;;
10418;SDS011;5256;48.728;9.140;2023-10-13T06:19:18;0.40;;;0.40;;
10418;SDS011;5256;48.728;9.140;2023-10-13T06:22:02;0.30;;;0.30;;
10418;SDS011;5256;48.728;9.140;2023-10-13T06:24:46;0.50;;;0.50;;
10418;SDS011;5256;48.728;9.140;2023-10-13T06:27:30;0.30;;;0.30;;
10418;SDS011;5256;48.728;9.140;2023-10-13T06:30:13;0.37;;;0.37;;
10418;SDS011;5256;48.728;9.140;2023-10-13T06:32:39;0.37;;;0.37;;
10418;SDS011;5256;48.728;9.140;2023-10-13T06:35:05;0.30;;;0.30;;
10418;SDS011;5256;48.728;9.140;2023-10-13T06:37:43;0.30;;;0.30;;
10418;SDS011;5256;48.728;9.140;2023-10-13T06:40:09;0.30;;;0.30;;
10418;SDS011;5256;48.728;9.140;2023-10-13T06:42:53;0.40;;;0.40;;
10418;SDS011;5256;48.728;9.140;2023-10-13T06:45:28;0.40;;;0.40;;
10418;SDS011;5256;48.728;9.140;2023-10-13T06:48:00;0.40;;;0.40;;
10418;SDS011;5256;48.728;9.140;2023-10-13T06:50:26;0.33;;;0.33;;
10418;SDS011;5256;48.728;9.140;2023-10-13T06:52:53;0.40;;;0.40;;
10418;SDS011;5256;48.728;9.140;2023-10-13T06:55:20;0.30;;;0.30;;
10418;SDS011;5256;48.728;9.140;2023-10-13T06:57:52;0.30;;;0.30;;
10418;SDS011;5256;48.728;9.140;2023-10-13T07:00:24;0.40;;;0.40;;
10418;SDS011;5256;48.728;9.140;2023-10-13T07:02:54;0.30;;;0.30;;
10418;SDS011;5256;48.728;9.140;2023-10-13T07:05:33;0.40;;;0.40;;
10418;SDS011;5256;48.728;9.140;2023-10-13T07:08:08;0.30;;;0.30;;
10418;SDS011;5256;48.728;9.140;2023-10-13T07:10:46;0.30;;;0.30;;
10418;SDS011;5256;48.728;9.140;2023-10-13T07:13:33;0.30;;;0.30;;
10418;SDS011;5256;48.728;9.140;2023-10-13T07:16:04;0.20;;;0.20;;
10418;SDS011;5256;48.728;9.140;2023-10-13T07:18:33;0.30;;;0.30;;
10418;SDS011;5256;48.728;9.140;2023-10-13T07:21:14;0.30;;;0.30;;
10418;SDS011;5256;48.728;9.140;2023-10-13T07:23:40;0.30;;;0.30;;
10418;SDS011;5256;48.728;9.140;2023-10-13T07:26:11;0.30;;;0.30;;
10418;SDS011;5256;48.728;9.140;2023-10-13T07:28:37;0.20;;;0.20;;
10418;SDS011;5256;48.728;9.140;2023-10-13T07:31:08;0.20;;;0.20;;
10418;SDS011;5256;48.728;9.140;2023-10-13T07:33:37;0.30;;;0.30;;
10418;SDS011;5256;48.728;9.140;2023-10-13T07:36:07;0.20;;;0.20;;
10418;SDS011;5256;48.728;9.140;2023-10-13T07:38:44;0.30;;;0.30;;
10418;SDS011;5256;48.728;9.140;2023-10-13T07:41:16;0.30;;;0.30;;
10418;SDS011;5256;48.728;9.140;2023-10-13T07:43:42;0.20;;;0.20;;
10418;SDS011;5256;48.728;9.140;2023-10-13T07:46:10;0.20;;;0.20;;
10418;SDS011;5256;48.728;9.140;2023-10-13T07:48:37;0.20;;;0.20;;
10418;SDS011;5256;48.728;9.140;2023-10-13T07:51:04;0.20;;;0.20;;
10418;SDS011;5256;48.728;9.140;2023-10-13T07:53:35;0.20;;;0.20;;
10418;SDS011;5256;48.728;9.140;2023-10-13T07:56:04;0.30;;;0.30;;
10418;SDS011;5256;48.728;9.140;2023-10-13T07:58:39;0.27;;;0.27;;
10418;SDS011;5256;48.728;9.140;2023-10-13T08:01:23;0.20;;;0.20;;
10418;SDS011;5256;48.728;9.140;2023-10-13T08:03:49;0.30;;;0.30;;
10418;SDS011;5256;48.728;9.140;2023-10-13T08:06:29;0.30;;;0.30;;
10418;SDS011;5256;48.728;9.140;2023-10-13T08:08:55;0.20;;;0.20;;
10418;SDS011;5256;48.728;9.140;2023-10-13T08:11:32;0.20;;;0.20;;
10418;SDS011;5256;48.728;9.140;2023-10-13T08:14:00;0.20;;;0.20;;
10418;SDS011;5256;48.728;9.140;2023-10-13T08:16:36;0.20;;;0.20;;
10418;SDS011;5256;48.728;9.140;2023-10-13T08:19:18;0.30;;;0.30;;
10418;SDS011;5256;48.728;9.140;2023-10-13T08:21:46;0.20;;;0.20;;
10418;SDS011;5256;48.728;9.140;2023-10-13T08:24:22;0.20;;;0.20;;
10418;SDS011;5256;48.728;9.140;2023-10-13T08:27:14;0.30;;;0.30;;
10418;SDS011;5256;48.728;9.140;2023-10-13T08:29:47;0.30;;;0.30;;
10418;SDS011;5256;48.728;9.140;2023-10-13T08:32:38;0.30;;;0.30;;
10418;SDS011;5256;48.728;9.140;2023-10-13T08:35:10;0.30;;;0.30;;
10418;SDS011;5256;48.728;9.140;2023-10-13T08:37:47;0.30;;;0.30;;
10418;SDS011;5256;48.728;9.140;2023-10-13T08:40:26;0.27;;;0.27;;
10418;SDS011;5256;48.728;9.140;2023-10-13T08:43:11;0.20;;;0.20;;
10418;SDS011;5256;48.728;9.140;2023-10-13T08:45:41;0.30;;;0.30;;
10418;SDS011;5256;48.728;9.140;2023-10-13T08:48:08;0.27;;;0.27;;
10418;SDS011;5256;48.728;9.140;2023-10-13T08:50:39;0.30;;;0.30;;
10418;SDS011;5256;48.728;9.140;2023-10-13T08:56:01;0.20;;;0.20;;
10418;SDS011;5256;48.728;9.140;2023-10-13T09:04:06;0.20;;;0.20;;
10418;SDS011;5256;48.728;9.140;2023-10-13T09:06:57;0.27;;;0.27;;
10418;SDS011;5256;48.728;9.140;2023-10-13T09:12:11;0.20;;;0.20;;
10418;SDS011;5256;48.728;9.140;2023-10-13T09:14:39;0.30;;;0.30;;
10418;SDS011;5256;48.728;9.140;2023-10-13T09:17:10;0.30;;;0.30;;
10418;SDS011;5256;48.728;9.140;2023-10-13T09:19:45;0.17;;;0.17;;
10418;SDS011;5256;48.728;9.140;2023-10-13T09:22:23;0.20;;;0.20;;
10418;SDS011;5256;48.728;9.140;2023-10-13T09:25:00;0.20;;;0.20;;
10418;SDS011;5256;48.728;9.140;2023-10-13T09:27:28;0.20;;;0.20;;
10418;SDS011;5256;48.728;9.140;2023-10-13T09:29:57;0.20;;;0.20;;
10418;SDS011;5256;48.728;9.140;2023-10-13T09:32:35;0.30;;;0.30;;
10418;SDS011;5256;48.728;9.140;2023-10-13T09:35:11;0.20;;;0.20;;
10418;SDS011;5256;48.728;9.140;2023-10-13T09:37:52;0.20;;;0.20;;
10418;SDS011;5256;48.728;9.140;2023-10-13T09:40:21;0.20;;;0.20;;
10418;SDS011;5256;48.728;9.140;2023-10-13T09:42:51;0.30;;;0.30;;
10418;SDS011;5256;48.728;9.140;2023-10-13T09:45:20;0.20;;;0.20;;
10418;SDS011;5256;48.728;9.140;2023-10-13T09:47:52;0.30;;;0.30;;
10418;SDS011;5256;48.728;9.140;2023-10-13T09:50:22;0.20;;;0.20;;
10418;SDS011;5256;48.728;9.140;2023-10-13T09:52:51;0.20;;;0.20;;
10418;SDS011;5256;48.728;9.140;2023-10-13T09:55:29;0.30;;;0.30;;
10418;SDS011;5256;48.728;9.140;2023-10-13T09:58:02;0.30;;;0.30;;
10418;SDS011;5256;48.728;9.140;2023-10-13T10:00:42;0.23;;;0.23;;
10418;SDS011;5256;48.728;9.140;2023-10-13T10:03:22;0.20;;;0.20;;
10418;SDS011;5256;48.728;9.140;2023-10-13T10:05:59;0.20;;;0.20;;
10418;SDS011;5256;48.728;9.140;2023-10-13T10:08:44;0.20;;;0.20;;
10418;SDS011;5256;48.728;9.140;2023-10-13T10:14:00;0.20;;;0.20;;
10418;SDS011;5256;48.728;9.140;2023-10-13T10:19:11;0.20;;;0.20;;
10418;SDS011;5256;48.728;9.140;2023-10-13T10:21:37;0.20;;;0.20;;
10418;SDS011;5256;48.728;9.140;2023-10-13T10:24:13;0.20;;;0.20;;
10418;SDS011;5256;48.728;9.140;2023-10-13T10:26:52;0.20;;;0.20;;
10418;SDS011;5256;48.728;9.140;2023-10-13T10:29:18;0.20;;;0.20;;
10418;SDS011;5256;48.728;9.140;2023-10-13T10:31:44;0.20;;;0.20;;
10418;SDS011;5256;48.728;9.140;2023-10-13T10:34:12;0.10;;;0.10;;
10418;SDS011;5256;48.728;9.140;2023-10-13T10:36:38;0.20;;;0.20;;
10418;SDS011;5256;48.728;9.140;2023-10-13T10:39:08;0.17;;;0.17;;
10418;SDS011;5256;48.728;9.140;2023-10-13T10:41:36;0.20;;;0.20;;
10418;SDS011;5256;48.728;9.140;2023-10-13T10:44:14;0.20;;;0.20;;
10418;SDS011;5256;48.728;9.140;2023-10-13T10:46:43;0.20;;;0.20;;
10418;SDS011;5256;48.728;9.140;2023-10-13T10:49:22;0.23;;;0.23;;
10418;SDS011;5256;48.728;9.140;2023-10-13T10:52:03;0.20;;;0.20;;
10418;SDS011;5256;48.728;9.140;2023-10-13T10:54:43;0.30;;;0.30;;
10418;SDS011;5256;48.728;9.140;2023-10-13T10:57:09;0.20;;;0.20;;
10418;SDS011;5256;48.728;9.140;2023-10-13T10:59:39;0.20;;;0.20;;
10418;SDS011;5256;48.728;9.140;2023-10-13T11:02:06;0.20;;;0.20;;
10418;SDS011;5256;48.728;9.140;2023-10-13T11:04:33;0.20;;;0.20;;
10418;SDS011;5256;48.728;9.140;2023-10-13T11:06:59;0.10;;;0.10;;
10418;SDS011;5256;48.728;9.140;2023-10-13T11:09:25;0.10;;;0.10;;
10418;SDS011;5256;48.728;9.140;2023-10-13T11:11:56;0.20;;;0.20;;
10418;SDS011;5256;48.728;9.140;2023-10-13T11:15:03;0.10;;;0.10;;
10418;SDS011;5256;48.728;9.140;2023-10-13T11:17:47;0.20;;;0.20;;
10418;SDS011;5256;48.728;9.140;2023-10-13T11:20:17;0.20;;;0.20;;
10418;SDS011;5256;48.728;9.140;2023-10-13T11:22:50;0.10;;;0.10;;
10418;SDS011;5256;48.728;9.140;2023-10-13T11:25:24;0.10;;;0.10;;
10418;SDS011;5256;48.728;9.140;2023-10-13T11:28:09;0.13;;;0.13;;
10418;SDS011;5256;48.728;9.140;2023-10-13T11:30:54;0.20;;;0.20;;
10418;SDS011;5256;48.728;9.140;2023-10-13T11:33:24;0.10;;;0.10;;
10418;SDS011;5256;48.728;9.140;2023-10-13T11:35:54;0.20;;;0.20;;
10418;SDS011;5256;48.728;9.140;2023-10-13T11:38:27;0.20;;;0.20;;
10418;SDS011;5256;48.728;9.140;2023-10-13T11:41:00;0.20;;;0.20;;
10418;SDS011;5256;48.728;9.140;2023-10-13T11:43:33;0.20;;;0.20;;
10418;SDS011;5256;48.728;9.140;2023-10-13T11:46:12;0.20;;;0.20;;
10418;SDS011;5256;48.728;9.140;2023-10-13T11:48:40;0.10;;;0.10;;
10418;SDS011;5256;48.728;9.140;2023-10-13T11:51:08;0.20;;;0.20;;
10418;SDS011;5256;48.728;9.140;2023-10-13T11:53:42;0.10;;;0.10;;
10418;SDS011;5256;48.728;9.140;2023-10-13T11:56:19;0.20;;;0.20;;
10418;SDS011;5256;48.728;9.140;2023-10-13T11:58:48;0.20;;;0.20;;
10418;SDS011;5256;48.728;9.140;2023-10-13T12:01:14;0.20;;;0.20;;
10418;SDS011;5256;48.728;9.140;2023-10-13T12:03:40;0.10;;;0.10;;
10418;SDS011;5256;48.728;9.140;2023-10-13T12:06:26;0.20;;;0.20;;
10418;SDS011;5256;48.728;9.140;2023-10-13T12:09:00;0.20;;;0.20;;
10418;SDS011;5256;48.728;9.140;2023-10-13T12:11:40;0.20;;;0.20;;
10418;SDS011;5256;48.728;9.140;2023-10-13T12:14:06;0.13;;;0.13;;
10418;SDS011;5256;48.728;9.140;2023-10-13T12:16:52;0.10;;;0.10;;
10418;SDS011;5256;48.728;9.140;2023-10-13T12:19:22;0.20;;;0.20;;
10418;SDS011;5256;48.728;9.140;2023-10-13T12:21:52;0.10;;;0.10;;
10418;SDS011;5256;48.728;9.140;2023-10-13T12:27:08;0.20;;;0.20;;
10418;SDS011;5256;48.728;9.140;2023-10-13T12:29:49;0.20;;;0.20;;
10418;SDS011;5256;48.728;9.140;2023-10-13T12:32:17;0.10;;;0.10;;
10418;SDS011;5256;48.728;9.140;2023-10-13T12:34:49;0.20;;;0.20;;
10418;SDS011;5256;48.728;9.140;2023-10-13T12:37:28;0.20;;;0.20;;
10418;SDS011;5256;48.728;9.140;2023-10-13T12:42:56;0.10;;;0.10;;
10418;SDS011;5256;48.728;9.140;2023-10-13T12:45:44;0.20;;;0.20;;
10418;SDS011;5256;48.728;9.140;2023-10-13T12:48:29;0.10;;;0.10;;
10418;SDS011;5256;48.728;9.140;2023-10-13T12:51:14;0.27;;;0.27;;
10418;SDS011;5256;48.728;9.140;2023-10-13T12:53:49;0.20;;;0.20;;
10418;SDS011;5256;48.728;9.140;2023-10-13T12:56:17;0.20;;;0.20;;
10418;SDS011;5256;48.728;9.140;2023-10-13T12:58:50;0.10;;;0.10;;
10418;SDS011;5256;48.728;9.140;2023-10-13T13:01:20;0.20;;;0.20;;
10418;SDS011;5256;48.728;9.140;2023-10-13T13:03:46;0.10;;;0.10;;
10418;SDS011;5256;48.728;9.140;2023-10-13T13:06:20;0.20;;;0.20;;
10418;SDS011;5256;48.728;9.140;2023-10-13T13:08:54;0.20;;;0.20;;
10418;SDS011;5256;48.728;9.140;2023-10-13T13:11:21;0.10;;;0.10;;
10418;SDS011;5256;48.728;9.140;2023-10-13T13:13:47;0.10;;;0.10;;
10418;SDS011;5256;48.728;9.140;2023-10-13T13:16:17;0.10;;;0.10;;
10418;SDS011;5256;48.728;9.140;2023-10-13T13:18:45;0.13;;;0.13;;
10418;SDS011;5256;48.728;9.140;2023-10-13T13:21:10;0.10;;;0.10;;
10418;SDS011;5256;48.728;9.140;2023-10-13T13:23:46;0.10;;;0.10;;
10418;SDS011;5256;48.728;9.140;2023-10-13T13:26:12;0.20;;;0.20;;
10418;SDS011;5256;48.728;9.140;2023-10-13T13:28:45;0.10;;;0.10;;
10418;SDS011;5256;48.728;9.140;2023-10-13T13:31:17;0.10;;;0.10;;
10418;SDS011;5256;48.728;9.140;2023-10-13T13:33:43;0.20;;;0.20;;
10418;SDS011;5256;48.728;9.140;2023-10-13T13:36:09;0.17;;;0.17;;
10418;SDS011;5256;48.728;9.140;2023-10-13T13:38:42;0.10;;;0.10;;
10418;SDS011;5256;48.728;9.140;2023-10-13T13:41:15;0.10;;;0.10;;
10418;SDS011;5256;48.728;9.140;2023-10-13T13:43:44;0.10;;;0.10;;
10418;SDS011;5256;48.728;9.140;2023-10-13T13:46:23;0.20;;;0.20;;
10418;SDS011;5256;48.728;9.140;2023-10-13T13:48:50;0.10;;;0.10;;
10418;SDS011;5256;48.728;9.140;2023-10-13T13:51:22;0.13;;;0.13;;
10418;SDS011;5256;48.728;9.140;2023-10-13T13:53:52;0.20;;;0.20;;
10418;SDS011;5256;48.728;9.140;2023-10-13T13:56:19;0.10;;;0.10;;
10418;SDS011;5256;48.728;9.140;2023-10-13T13:58:45;0.10;;;0.10;;
10418;SDS011;5256;48.728;9.140;2023-10-13T14:03:40;0.10;;;0.10;;
10418;SDS011;5256;48.728;9.140;2023-10-13T14:06:12;0.10;;;0.10;;
10418;SDS011;5256;48.728;9.140;2023-10-13T14:08:57;0.10;;;0.10;;
10418;SDS011;5256;48.728;9.140;2023-10-13T14:11:31;0.20;;;0.20;;
10418;SDS011;5256;48.728;9.140;2023-10-13T14:14:06;0.10;;;0.10;;
10418;SDS011;5256;48.728;9.140;2023-10-13T14:16:51;0.10;;;0.10;;
10418;SDS011;5256;48.728;9.140;2023-10-13T14:19:18;0.10;;;0.10;;
10418;SDS011;5256;48.728;9.140;2023-10-13T14:21:51;0.20;;;0.20;;
10418;SDS011;5256;48.728;9.140;2023-10-13T14:24:18;0.20;;;0.20;;
10418;SDS011;5256;48.728;9.140;2023-10-13T14:26:56;0.20;;;0.20;;
10418;SDS011;5256;48.728;9.140;2023-10-13T14:29:33;0.10;;;0.10;;
10418;SDS011;5256;48.728;9.140;2023-10-13T14:31:58;0.10;;;0.10;;
10418;SDS011;5256;48.728;9.140;2023-10-13T14:34:24;0.10;;;0.10;;
10418;SDS011;5256;48.728;9.140;2023-10-13T14:36:51;0.10;;;0.10;;
10418;SDS011;5256;48.728;9.140;2023-10-13T14:39:17;0.13;;;0.13;;
10418;SDS011;5256;48.728;9.140;2023-10-13T14:41:45;0.10;;;0.10;;
10418;SDS011;5256;48.728;9.140;2023-10-13T14:44:14;0.10;;;0.10;;
10418;SDS011;5256;48.728;9.140;2023-10-13T14:46:39;0.20;;;0.20;;
10418;SDS011;5256;48.728;9.140;2023-10-13T14:49:05;0.10;;;0.10;;
10418;SDS011;5256;48.728;9.140;2023-10-13T14:51:31;0.10;;;0.10;;
10418;SDS011;5256;48.728;9.140;2023-10-13T14:53:57;0.20;;;0.20;;
10418;SDS011;5256;48.728;9.140;2023-10-13T14:56:29;0.10;;;0.10;;
10418;SDS011;5256;48.728;9.140;2023-10-13T14:58:55;0.10;;;0.10;;
10418;SDS011;5256;48.728;9.140;2023-10-13T15:01:21;0.17;;;0.17;;
10418;SDS011;5256;48.728;9.140;2023-10-13T15:03:52;0.10;;;0.10;;
10418;SDS011;5256;48.728;9.140;2023-10-13T15:06:25;0.10;;;0.10;;
10418;SDS011;5256;48.728;9.140;2023-10-13T15:08:55;0.20;;;0.20;;
10418;SDS011;5256;48.728;9.140;2023-10-13T15:11:23;0.13;;;0.13;;
10418;SDS011;5256;48.728;9.140;2023-10-13T15:13:54;0.10;;;0.10;;
10418;SDS011;5256;48.728;9.140;2023-10-13T15:16:22;0.10;;;0.10;;
10418;SDS011;5256;48.728;9.140;2023-10-13T15:18:50;0.20;;;0.20;;
10418;SDS011;5256;48.728;9.140;2023-10-13T15:23:51;0.20;;;0.20;;
10418;SDS011;5256;48.728;9.140;2023-10-13T15:26:17;0.10;;;0.10;;
10418;SDS011;5256;48.728;9.140;2023-10-13T15:28:49;0.10;;;0.10;;
10418;SDS011;5256;48.728;9.140;2023-10-13T15:31:18;0.20;;;0.20;;
10418;SDS011;5256;48.728;9.140;2023-10-13T15:33:59;0.10;;;0.10;;
10418;SDS011;5256;48.728;9.140;2023-10-13T15:36:31;0.20;;;0.20;;
10418;SDS011;5256;48.728;9.140;2023-10-13T15:39:00;0.20;;;0.20;;
10418;SDS011;5256;48.728;9.140;2023-10-13T15:41:26;0.13;;;0.13;;
10418;SDS011;5256;48.728;9.140;2023-10-13T15:43:53;0.20;;;0.20;;
10418;SDS011;5256;48.728;9.140;2023-10-13T15:46:20;0.20;;;0.20;;
10418;SDS011;5256;48.728;9.140;2023-10-13T15:48:47;0.10;;;0.10;;
10418;SDS011;5256;48.728;9.140;2023-10-13T15:51:16;0.20;;;0.20;;
10418;SDS011;5256;48.728;9.140;2023-10-13T15:53:42;0.20;;;0.20;;
10418;SDS011;5256;48.728;9.140;2023-10-13T15:56:09;0.10;;;0.10;;
10418;SDS011;5256;48.728;9.140;2023-10-13T15:58:39;0.10;;;0.10;;
10418;SDS011;5256;48.728;9.140;2023-10-13T16:01:05;0.17;;;0.17;;
10418;SDS011;5256;48.728;9.140;2023-10-13T16:03:33;0.20;;;0.20;;
10418;SDS011;5256;48.728;9.140;2023-10-13T16:06:01;0.13;;;0.13;;
10418;SDS011;5256;48.728;9.140;2023-10-13T16:08:29;0.10;;;0.10;;